createdAt,value
2022-07-28T00:00:04.345Z,9.04
2022-07-28T00:00:34.262Z,9.04
2022-07-28T00:00:51.943Z,9.04
2022-07-28T00:01:23.817Z,9.04
2022-07-28T00:01:42.477Z,9.04
2022-07-28T00:02:12.640Z,8.94
2022-07-28T00:02:34.425Z,8.94
2022-07-28T00:02:59.866Z,8.94
2022-07-28T00:03:32.580Z,8.94
2022-07-28T00:04:04.957Z,8.94
2022-07-28T00:04:33.266Z,8.94
2022-07-28T00:04:54.384Z,8.94
2022-07-28T00:05:24.783Z,9.13
2022-07-28T00:05:43.023Z,9.13
2022-07-28T00:06:12.833Z,9.13
2022-07-28T00:06:33.265Z,9.13
2022-07-28T00:07:00.068Z,9.13
2022-07-28T00:07:32.541Z,9.13
2022-07-28T00:08:03.862Z,9.09
2022-07-28T00:08:34.456Z,9.09
2022-07-28T00:08:52.656Z,9.09
2022-07-28T00:09:23.944Z,9.13
2022-07-28T00:09:41.783Z,9.13
2022-07-28T00:10:12.747Z,9.13
2022-07-28T00:10:33.222Z,9.13
2022-07-28T00:11:00.086Z,9.13
2022-07-28T00:11:33.671Z,9.13
2022-07-28T00:12:04.015Z,9.13
2022-07-28T00:12:35.114Z,9.13
2022-07-28T00:12:52.385Z,9.13
2022-07-28T00:13:23.866Z,9.13
2022-07-28T00:13:43.038Z,9.13
2022-07-28T00:14:12.218Z,9.13
2022-07-28T00:14:33.288Z,9.13
2022-07-28T00:14:59.878Z,9.13
2022-07-28T00:15:33.491Z,9.13
2022-07-28T00:16:04.641Z,9.13
2022-07-28T00:16:33.316Z,9.13
2022-07-28T00:16:53.810Z,9.13
2022-07-28T00:17:24.655Z,9.13
2022-07-28T00:17:41.020Z,9.13
2022-07-28T00:18:12.907Z,9.13
2022-07-28T00:18:33.910Z,9.13
2022-07-28T00:19:00.878Z,9.13
2022-07-28T00:19:31.882Z,9.13
2022-07-28T00:20:05.807Z,9.13
2022-07-28T00:20:33.242Z,9.13
2022-07-28T00:20:52.090Z,9.13
2022-07-28T00:21:23.936Z,9.13
2022-07-28T00:21:43.800Z,9.13
2022-07-28T00:22:12.758Z,9.13
2022-07-28T00:22:33.200Z,9.13
2022-07-28T00:22:59.945Z,9.09
2022-07-28T00:23:38.658Z,9.09
2022-07-28T00:24:03.811Z,9.09
2022-07-28T00:24:33.962Z,9.09
2022-07-28T00:24:51.837Z,9.09
2022-07-28T00:25:24.870Z,9.09
2022-07-28T00:25:42.109Z,9.09
2022-07-28T00:26:13.881Z,8.98
2022-07-28T00:26:33.242Z,8.98
2022-07-28T00:27:00.699Z,9.18
2022-07-28T00:27:32.741Z,9.18
2022-07-28T00:28:03.916Z,8.98
2022-07-28T00:28:33.220Z,8.98
2022-07-28T00:28:52.525Z,9.18
2022-07-28T00:29:23.969Z,9.18
2022-07-28T00:29:49.807Z,9.18
2022-07-28T00:30:12.157Z,9.18
2022-07-28T00:30:33.309Z,9.18
2022-07-28T00:31:05.697Z,9.18
2022-07-28T00:31:31.901Z,8.98
2022-07-28T00:32:05.143Z,8.98
2022-07-28T00:32:33.232Z,8.98
2022-07-28T00:32:51.948Z,9.13
2022-07-28T00:33:23.937Z,9.13
2022-07-28T00:33:41.945Z,9.13
2022-07-28T00:34:13.004Z,9.13
2022-07-28T00:34:33.260Z,9.13
2022-07-28T00:34:59.990Z,9.13
2022-07-28T00:35:32.100Z,9.13
2022-07-28T00:36:05.422Z,9.13
2022-07-28T00:36:34.299Z,9.13
2022-07-28T00:36:51.808Z,9.13
2022-07-28T00:37:24.679Z,9.13
2022-07-28T00:37:42.977Z,9.13
2022-07-28T00:38:11.819Z,9.13
2022-07-28T00:38:33.270Z,9.13
2022-07-28T00:39:00.538Z,9.13
2022-07-28T00:39:35.278Z,9.13
2022-07-28T00:40:04.108Z,9.13
2022-07-28T00:40:33.253Z,9.13
2022-07-28T00:40:51.950Z,9.13
2022-07-28T00:41:25.537Z,9.13
2022-07-28T00:41:56.955Z,9.13
2022-07-28T00:42:27.978Z,9.13
2022-07-28T00:43:02.493Z,9.13
2022-07-28T00:43:32.830Z,9.13
2022-07-28T00:44:03.971Z,9.09
2022-07-28T00:44:34.105Z,9.09
2022-07-28T00:44:51.975Z,9.09
2022-07-28T00:45:24.073Z,9.28
2022-07-28T00:45:41.273Z,9.28
2022-07-28T00:46:14.806Z,9.28
2022-07-28T00:46:33.425Z,9.28
2022-07-28T00:47:00.124Z,9.28
2022-07-28T00:47:34.014Z,9.28
2022-07-28T00:48:03.986Z,9.28
2022-07-28T00:48:33.353Z,9.28
2022-07-28T00:48:52.573Z,9.18
2022-07-28T00:49:24.046Z,9.18
2022-07-28T00:49:41.023Z,9.18
2022-07-28T00:50:12.977Z,9.18
2022-07-28T00:50:33.216Z,9.28
2022-07-28T00:51:00.748Z,9.28
2022-07-28T00:51:31.982Z,9.28
2022-07-28T00:52:05.535Z,9.28
2022-07-28T00:52:33.360Z,9.28
2022-07-28T00:52:51.820Z,9.28
2022-07-28T00:53:23.864Z,9.28
2022-07-28T00:53:41.948Z,9.28
2022-07-28T00:54:12.799Z,9.28
2022-07-28T00:54:33.266Z,9.28
2022-07-28T00:55:00.963Z,9.28
2022-07-28T00:55:32.738Z,9.28
2022-07-28T00:56:19.915Z,9.28
2022-07-28T00:56:52.433Z,9.28
2022-07-28T00:57:24.713Z,9.28
2022-07-28T00:57:41.245Z,9.28
2022-07-28T00:58:11.869Z,9.28
2022-07-28T00:58:33.323Z,9.28
2022-07-28T00:59:00.492Z,9.18
2022-07-28T00:59:33.911Z,9.18
2022-07-28T01:00:03.973Z,9.18
2022-07-28T01:00:33.218Z,9.18
2022-07-28T01:00:52.735Z,9.18
2022-07-28T01:01:24.674Z,9.18
2022-07-28T01:01:41.261Z,9.18
2022-07-28T01:02:12.798Z,9.18
2022-07-28T01:02:33.351Z,9.18
2022-07-28T01:03:00.643Z,9.18
2022-07-28T01:03:31.925Z,9.18
2022-07-28T01:04:03.880Z,9.18
2022-07-28T01:04:33.341Z,9.18
2022-07-28T01:04:51.931Z,9.18
2022-07-28T01:05:43.850Z,9.36
2022-07-28T01:05:56.749Z,9.25
2022-07-28T01:06:28.575Z,9.25
2022-07-28T01:07:00.772Z,9.25
2022-07-28T01:07:33.224Z,9.25
2022-07-28T01:08:04.723Z,9.25
2022-07-28T01:08:33.220Z,9.25
2022-07-28T01:08:52.554Z,9.25
2022-07-28T01:09:23.809Z,9.25
2022-07-28T01:09:40.949Z,9.25
2022-07-28T01:10:12.619Z,9.25
2022-07-28T01:10:33.330Z,9.36
2022-07-28T01:10:59.983Z,9.36
2022-07-28T01:11:31.859Z,9.36
2022-07-28T01:12:03.892Z,9.36
2022-07-28T01:12:33.239Z,9.18
2022-07-28T01:12:53.642Z,9.18
2022-07-28T01:13:24.491Z,9.36
2022-07-28T01:13:43.965Z,9.18
2022-07-28T01:14:12.185Z,9.18
2022-07-28T01:14:33.268Z,9.28
2022-07-28T01:15:00.749Z,9.28
2022-07-28T01:15:34.674Z,9.28
2022-07-28T01:16:03.847Z,9.28
2022-07-28T01:16:33.367Z,9.47
2022-07-28T01:16:52.754Z,9.28
2022-07-28T01:17:24.643Z,9.47
2022-07-28T01:17:41.209Z,9.47
2022-07-28T01:18:11.819Z,9.28
2022-07-28T01:18:34.126Z,9.28
2022-07-28T01:19:00.506Z,9.47
2022-07-28T01:19:33.206Z,9.47
2022-07-28T01:20:04.616Z,9.28
2022-07-28T01:20:33.340Z,9.28
2022-07-28T01:20:51.982Z,9.28
2022-07-28T01:21:25.626Z,9.28
2022-07-28T01:21:55.907Z,9.28
2022-07-28T01:22:28.509Z,9.28
2022-07-28T01:22:59.905Z,9.33
2022-07-28T01:23:32.641Z,9.33
2022-07-28T01:24:03.916Z,9.33
2022-07-28T01:24:34.266Z,9.33
2022-07-28T01:24:51.896Z,9.33
2022-07-28T01:25:24.019Z,9.33
2022-07-28T01:25:40.940Z,9.33
2022-07-28T01:26:12.631Z,9.33
2022-07-28T01:26:33.222Z,9.33
2022-07-28T01:27:00.377Z,9.33
2022-07-28T01:27:31.872Z,9.33
2022-07-28T01:28:03.770Z,9.33
2022-07-28T01:28:33.363Z,9.33
2022-07-28T01:28:51.901Z,9.33
2022-07-28T01:29:24.485Z,9.33
2022-07-28T01:29:41.155Z,9.33
2022-07-28T01:30:11.936Z,9.44
2022-07-28T01:30:33.230Z,9.44
2022-07-28T01:31:00.907Z,9.44
2022-07-28T01:31:32.548Z,9.33
2022-07-28T01:32:05.030Z,9.33
2022-07-28T01:32:35.338Z,9.33
2022-07-28T01:32:52.446Z,9.33
2022-07-28T01:33:23.782Z,9.33
2022-07-28T01:33:41.332Z,9.33
2022-07-28T01:34:13.520Z,9.33
2022-07-28T01:34:33.353Z,9.33
2022-07-28T01:35:00.608Z,9.33
2022-07-28T01:35:32.770Z,9.33
2022-07-28T01:36:04.628Z,9.44
2022-07-28T01:36:33.215Z,9.44
2022-07-28T01:36:52.682Z,9.44
2022-07-28T01:37:23.806Z,9.44
2022-07-28T01:37:42.379Z,9.44
2022-07-28T01:38:11.837Z,9.44
2022-07-28T01:38:34.335Z,9.44
2022-07-28T01:38:59.907Z,9.44
2022-07-28T01:39:31.841Z,9.44
2022-07-28T01:40:03.928Z,9.44
2022-07-28T01:40:33.435Z,9.44
2022-07-28T01:40:51.955Z,9.44
2022-07-28T01:41:24.428Z,9.44
2022-07-28T01:41:41.813Z,9.44
2022-07-28T01:42:11.801Z,9.44
2022-07-28T01:42:33.276Z,9.44
2022-07-28T01:42:59.820Z,9.44
2022-07-28T01:43:33.509Z,9.44
2022-07-28T01:44:03.892Z,9.44
2022-07-28T01:44:33.277Z,9.44
2022-07-28T01:44:52.561Z,9.44
2022-07-28T01:45:23.930Z,9.44
2022-07-28T01:45:40.931Z,9.33
2022-07-28T01:46:12.013Z,9.33
2022-07-28T01:46:33.406Z,9.33
2022-07-28T01:47:01.476Z,9.33
2022-07-28T01:47:31.801Z,9.33
2022-07-28T01:48:04.624Z,9.33
2022-07-28T01:48:33.354Z,9.33
2022-07-28T01:48:51.958Z,9.33
2022-07-28T01:49:23.904Z,9.33
2022-07-28T01:49:41.289Z,9.33
2022-07-28T01:50:12.760Z,9.33
2022-07-28T01:50:33.240Z,9.33
2022-07-28T01:51:00.827Z,9.33
2022-07-28T01:51:32.807Z,9.33
2022-07-28T01:52:04.795Z,9.33
2022-07-28T01:52:33.833Z,9.33
2022-07-28T01:52:51.893Z,9.33
2022-07-28T01:53:25.392Z,9.33
2022-07-28T01:53:55.898Z,9.33
2022-07-28T01:54:29.043Z,9.33
2022-07-28T01:54:59.787Z,9.33
2022-07-28T01:55:32.070Z,9.33
2022-07-28T01:56:03.857Z,9.33
2022-07-28T01:56:33.392Z,9.33
2022-07-28T01:56:52.564Z,9.33
2022-07-28T01:57:24.330Z,9.33
2022-07-28T01:57:57.009Z,9.33
2022-07-28T01:58:27.827Z,9.33
2022-07-28T01:58:59.842Z,9.33
2022-07-28T01:59:32.071Z,9.33
2022-07-28T02:00:04.022Z,9.33
2022-07-28T02:00:35.238Z,9.33
2022-07-28T02:00:52.783Z,9.33
2022-07-28T02:01:24.635Z,9.44
2022-07-28T02:01:41.017Z,9.44
2022-07-28T02:02:11.914Z,9.44
2022-07-28T02:02:33.477Z,9.44
2022-07-28T02:02:59.994Z,9.44
2022-07-28T02:03:32.600Z,9.44
2022-07-28T02:04:04.850Z,9.44
2022-07-28T02:04:36.198Z,9.44
2022-07-28T02:05:08.908Z,9.44
2022-07-28T02:05:34.184Z,9.44
2022-07-28T02:05:57.283Z,9.44
2022-07-28T02:06:27.930Z,9.44
2022-07-28T02:07:00.511Z,9.33
2022-07-28T02:07:33.372Z,9.33
2022-07-28T02:08:04.620Z,9.33
2022-07-28T02:08:33.413Z,9.33
2022-07-28T02:08:51.825Z,9.33
2022-07-28T02:09:26.555Z,9.33
2022-07-28T02:09:55.853Z,9.33
2022-07-28T02:10:28.674Z,9.33
2022-07-28T02:11:00.767Z,9.52
2022-07-28T02:11:33.567Z,9.52
2022-07-28T02:12:03.920Z,9.52
2022-07-28T02:12:37.412Z,9.52
2022-07-28T02:13:07.842Z,9.52
2022-07-28T02:13:33.327Z,9.52
2022-07-28T02:13:55.923Z,9.52
2022-07-28T02:14:27.932Z,9.52
2022-07-28T02:15:00.719Z,9.33
2022-07-28T02:15:31.971Z,9.33
2022-07-28T02:16:04.774Z,9.52
2022-07-28T02:16:33.249Z,9.52
2022-07-28T02:16:51.888Z,9.52
2022-07-28T02:17:24.592Z,9.33
2022-07-28T02:17:41.206Z,9.52
2022-07-28T02:18:11.867Z,9.52
2022-07-28T02:18:33.289Z,9.52
2022-07-28T02:19:00.466Z,9.52
2022-07-28T02:19:34.651Z,9.52
2022-07-28T02:20:06.872Z,9.52
2022-07-28T02:20:33.353Z,9.52
2022-07-28T02:20:52.088Z,9.52
2022-07-28T02:21:25.460Z,9.52
2022-07-28T02:21:55.818Z,9.52
2022-07-28T02:22:27.764Z,9.52
2022-07-28T02:23:00.023Z,9.47
2022-07-28T02:23:31.886Z,9.47
2022-07-28T02:24:04.508Z,9.47
2022-07-28T02:24:34.208Z,9.47
2022-07-28T02:24:51.757Z,9.47
2022-07-28T02:25:24.810Z,9.47
2022-07-28T02:25:43.064Z,9.28
2022-07-28T02:26:11.845Z,9.33
2022-07-28T02:26:33.228Z,9.33
2022-07-28T02:26:59.828Z,9.33
2022-07-28T02:27:32.448Z,9.33
2022-07-28T02:28:03.866Z,9.33
2022-07-28T02:28:35.208Z,9.44
2022-07-28T02:28:51.622Z,9.44
2022-07-28T02:29:49.340Z,9.44
2022-07-28T02:29:55.855Z,9.44
2022-07-28T02:30:29.861Z,9.44
2022-07-28T02:30:59.850Z,9.44
2022-07-28T02:31:31.801Z,9.44
2022-07-28T02:32:03.847Z,9.44
2022-07-28T02:32:33.248Z,9.44
2022-07-28T02:32:52.473Z,9.33
2022-07-28T02:33:58.802Z,9.33
2022-07-28T02:34:12.805Z,9.33
2022-07-28T02:34:33.451Z,9.33
2022-07-28T02:34:59.935Z,9.33
2022-07-28T02:35:32.868Z,9.33
2022-07-28T02:36:06.901Z,9.33
2022-07-28T02:36:33.373Z,9.33
2022-07-28T02:36:51.948Z,9.28
2022-07-28T02:37:23.862Z,9.28
2022-07-28T02:37:42.452Z,9.28
2022-07-28T02:38:11.869Z,9.47
2022-07-28T02:38:33.298Z,9.47
2022-07-28T02:39:03.511Z,9.28
2022-07-28T02:39:31.842Z,9.47
2022-07-28T02:40:05.308Z,9.47
2022-07-28T02:40:33.387Z,9.28
2022-07-28T02:40:51.972Z,9.28
2022-07-28T02:41:23.896Z,9.47
2022-07-28T02:41:41.158Z,9.47
2022-07-28T02:42:14.312Z,9.47
2022-07-28T02:42:33.296Z,9.28
2022-07-28T02:42:59.814Z,9.28
2022-07-28T02:43:45.017Z,9.28
2022-07-28T02:44:03.917Z,9.28
2022-07-28T02:44:34.939Z,9.28
2022-07-28T02:45:08.746Z,9.28
2022-07-28T02:45:34.598Z,9.47
2022-07-28T02:45:56.000Z,9.47
2022-07-28T02:46:28.035Z,9.36
2022-07-28T02:46:59.876Z,9.36
2022-07-28T02:47:31.797Z,9.36
2022-07-28T02:48:03.764Z,9.36
2022-07-28T02:48:33.951Z,9.36
2022-07-28T02:48:51.893Z,9.25
2022-07-28T02:49:24.977Z,9.25
2022-07-28T02:49:56.692Z,9.25
2022-07-28T02:50:27.903Z,9.25
2022-07-28T02:50:59.877Z,9.25
2022-07-28T02:51:31.904Z,9.25
2022-07-28T02:52:03.755Z,9.25
2022-07-28T02:52:33.356Z,9.25
2022-07-28T02:52:54.514Z,9.25
2022-07-28T02:53:23.871Z,9.14
2022-07-28T02:53:40.985Z,9.14
2022-07-28T02:54:12.184Z,9.25
2022-07-28T02:54:34.189Z,9.25
2022-07-28T02:54:59.835Z,9.25
2022-07-28T02:55:32.731Z,9.25
2022-07-28T02:56:03.896Z,9.25
2022-07-28T02:56:35.284Z,9.25
2022-07-28T02:56:53.318Z,9.25
2022-07-28T02:57:23.737Z,9.25
2022-07-28T02:57:42.068Z,9.25
2022-07-28T02:58:11.937Z,9.14
2022-07-28T02:58:33.303Z,9.14
2022-07-28T02:59:01.433Z,9.33
2022-07-28T02:59:31.754Z,9.33
2022-07-28T03:00:04.857Z,9.23
2022-07-28T03:00:33.308Z,9.23
2022-07-28T03:00:52.078Z,9.23
2022-07-28T03:01:24.560Z,9.23
2022-07-28T03:01:41.979Z,9.23
2022-07-28T03:02:11.805Z,9.23
2022-07-28T03:02:33.346Z,9.23
2022-07-28T03:02:59.860Z,9.18
2022-07-28T03:03:32.866Z,9.18
2022-07-28T03:04:03.755Z,9.18
2022-07-28T03:04:33.523Z,9.18
2022-07-28T03:04:51.949Z,9.18
2022-07-28T03:05:25.459Z,9.18
2022-07-28T03:05:41.331Z,9.07
2022-07-28T03:06:11.890Z,9.07
2022-07-28T03:06:33.340Z,9.26
2022-07-28T03:07:01.355Z,9.26
2022-07-28T03:07:31.746Z,9.26
2022-07-28T03:08:04.559Z,9.26
2022-07-28T03:08:33.237Z,9.26
2022-07-28T03:09:08.595Z,9.15
2022-07-28T03:09:34.263Z,9.15
2022-07-28T03:09:58.416Z,9.15
2022-07-28T03:10:32.908Z,9.15
2022-07-28T03:10:59.915Z,9.15
2022-07-28T03:11:32.468Z,9.15
2022-07-28T03:12:03.772Z,9.03
2022-07-28T03:12:33.388Z,9.03
2022-07-28T03:12:52.580Z,9.03
2022-07-28T03:13:23.884Z,9.03
2022-07-28T03:13:41.328Z,9.03
2022-07-28T03:14:12.896Z,9.03
2022-07-28T03:14:33.239Z,9.03
2022-07-28T03:14:59.906Z,8.93
2022-07-28T03:15:32.332Z,8.93
2022-07-28T03:16:04.762Z,8.93
2022-07-28T03:16:33.460Z,9.11
2022-07-28T03:16:55.554Z,8.88
2022-07-28T03:17:24.470Z,9.06
2022-07-28T03:17:56.660Z,9.06
2022-07-28T03:18:28.512Z,8.95
2022-07-28T03:19:00.748Z,8.95
2022-07-28T03:19:31.860Z,8.95
2022-07-28T03:20:03.961Z,8.95
2022-07-28T03:20:33.244Z,8.95
2022-07-28T03:20:52.632Z,8.85
2022-07-28T03:21:24.778Z,8.85
2022-07-28T03:21:41.170Z,8.85
2022-07-28T03:22:11.922Z,8.85
2022-07-28T03:22:33.367Z,8.85
2022-07-28T03:23:00.490Z,8.73
2022-07-28T03:23:31.752Z,8.73
2022-07-28T03:24:04.584Z,8.91
2022-07-28T03:24:33.276Z,8.91
2022-07-28T03:24:51.934Z,8.91
2022-07-28T03:25:23.843Z,8.73
2022-07-28T03:25:40.873Z,8.91
2022-07-28T03:26:12.566Z,8.91
2022-07-28T03:26:35.404Z,8.91
2022-07-28T03:26:59.953Z,8.91
2022-07-28T03:27:31.739Z,8.91
2022-07-28T03:28:04.753Z,8.91
2022-07-28T03:28:33.382Z,8.91
2022-07-28T03:28:53.552Z,8.91
2022-07-28T03:29:24.534Z,8.80
2022-07-28T03:29:59.200Z,8.80
2022-07-28T03:30:28.040Z,8.80
2022-07-28T03:30:59.931Z,8.75
2022-07-28T03:31:32.551Z,8.75
2022-07-28T03:32:03.747Z,8.75
2022-07-28T03:32:34.369Z,8.75
2022-07-28T03:32:51.795Z,8.75
2022-07-28T03:33:23.841Z,8.75
2022-07-28T03:33:41.629Z,8.75
2022-07-28T03:34:12.963Z,8.75
2022-07-28T03:34:33.256Z,8.75
2022-07-28T03:34:59.823Z,8.75
2022-07-28T03:35:32.867Z,8.65
2022-07-28T03:36:04.451Z,8.65
2022-07-28T03:36:33.301Z,8.65
2022-07-28T03:36:51.768Z,8.65
2022-07-28T03:37:24.918Z,8.65
2022-07-28T03:37:41.273Z,8.54
2022-07-28T03:38:12.663Z,8.71
2022-07-28T03:38:33.377Z,8.71
2022-07-28T03:39:00.610Z,8.71
2022-07-28T03:39:32.737Z,8.71
2022-07-28T03:40:04.042Z,8.71
2022-07-28T03:40:34.379Z,8.71
2022-07-28T03:40:53.516Z,8.59
2022-07-28T03:41:23.811Z,8.59
2022-07-28T03:41:41.617Z,8.59
2022-07-28T03:42:15.132Z,8.59
2022-07-28T03:42:33.351Z,8.59
2022-07-28T03:43:01.663Z,8.59
2022-07-28T03:43:31.865Z,8.59
2022-07-28T03:44:04.885Z,8.59
2022-07-28T03:44:35.077Z,8.59
2022-07-28T03:44:51.552Z,8.59
2022-07-28T03:45:23.880Z,8.59
2022-07-28T03:45:42.110Z,8.59
2022-07-28T03:46:13.294Z,8.59
2022-07-28T03:46:33.311Z,8.59
2022-07-28T03:47:00.448Z,8.59
2022-07-28T03:47:32.691Z,8.59
2022-07-28T03:48:03.745Z,8.59
2022-07-28T03:48:33.393Z,8.59
2022-07-28T03:48:51.895Z,8.59
2022-07-28T03:49:24.460Z,8.59
2022-07-28T03:49:42.002Z,8.59
2022-07-28T03:50:11.863Z,8.59
2022-07-28T03:50:33.274Z,8.59
2022-07-28T03:51:01.860Z,8.59
2022-07-28T03:51:32.584Z,8.59
2022-07-28T03:52:03.808Z,8.59
2022-07-28T03:52:33.383Z,8.59
2022-07-28T03:52:52.565Z,8.59
2022-07-28T03:53:23.888Z,8.59
2022-07-28T03:53:40.991Z,8.59
2022-07-28T03:54:12.044Z,8.59
2022-07-28T03:54:34.282Z,8.49
2022-07-28T03:55:00.849Z,8.49
2022-07-28T03:55:31.919Z,8.49
2022-07-28T03:56:05.685Z,8.49
2022-07-28T03:56:33.443Z,8.49
2022-07-28T03:56:51.866Z,8.49
2022-07-28T03:57:23.927Z,8.49
2022-07-28T03:57:41.293Z,8.49
2022-07-28T03:58:12.553Z,8.44
2022-07-28T03:58:36.338Z,8.44
2022-07-28T03:58:59.891Z,8.44
2022-07-28T03:59:32.915Z,8.44
2022-07-28T04:00:09.409Z,8.44
2022-07-28T04:00:35.619Z,8.44
2022-07-28T04:01:08.940Z,8.44
2022-07-28T04:01:35.448Z,8.44
2022-07-28T04:01:56.099Z,8.33
2022-07-28T04:02:28.580Z,8.33
2022-07-28T04:02:59.861Z,8.33
2022-07-28T04:03:42.521Z,8.33
2022-07-28T04:04:04.854Z,8.22
2022-07-28T04:04:36.206Z,8.22
2022-07-28T04:05:08.061Z,8.22
2022-07-28T04:05:34.365Z,8.40
2022-07-28T04:05:56.929Z,8.40
2022-07-28T04:06:28.946Z,8.40
2022-07-28T04:07:02.616Z,8.40
2022-07-28T04:07:31.837Z,8.40
2022-07-28T04:08:03.901Z,8.40
2022-07-28T04:08:35.843Z,8.29
2022-07-28T04:09:07.905Z,8.29
2022-07-28T04:09:33.359Z,8.29
2022-07-28T04:09:57.494Z,8.29
2022-07-28T04:10:28.123Z,8.29
2022-07-28T04:11:00.621Z,8.29
2022-07-28T04:11:32.624Z,8.29
2022-07-28T04:12:04.724Z,8.29
2022-07-28T04:12:33.463Z,8.29
2022-07-28T04:12:51.970Z,8.29
2022-07-28T04:13:24.524Z,8.29
2022-07-28T04:13:56.768Z,8.29
2022-07-28T04:14:28.860Z,8.29
2022-07-28T04:15:00.012Z,8.29
2022-07-28T04:15:32.123Z,8.29
2022-07-28T04:16:03.871Z,8.29
2022-07-28T04:16:33.486Z,8.29
2022-07-28T04:16:52.037Z,8.29
2022-07-28T04:17:24.535Z,8.29
2022-07-28T04:17:42.934Z,8.29
2022-07-28T04:18:12.427Z,8.29
2022-07-28T04:18:34.200Z,8.29
2022-07-28T04:19:00.024Z,8.29
2022-07-28T04:19:32.518Z,8.29
2022-07-28T04:20:04.083Z,8.29
2022-07-28T04:20:34.444Z,8.29
2022-07-28T04:20:51.949Z,8.29
2022-07-28T04:21:23.956Z,8.29
2022-07-28T04:21:42.701Z,8.40
2022-07-28T04:22:13.427Z,8.40
2022-07-28T04:22:33.345Z,8.40
2022-07-28T04:23:00.451Z,8.40
2022-07-28T04:23:31.989Z,8.40
2022-07-28T04:24:03.990Z,8.40
2022-07-28T04:24:33.445Z,8.40
2022-07-28T04:24:51.791Z,8.40
2022-07-28T04:25:24.701Z,8.40
2022-07-28T04:25:56.803Z,8.40
2022-07-28T04:26:29.607Z,8.40
2022-07-28T04:26:59.809Z,8.40
2022-07-28T04:27:31.883Z,8.40
2022-07-28T04:28:04.517Z,8.40
2022-07-28T04:28:33.356Z,8.40
2022-07-28T04:28:51.891Z,8.40
2022-07-28T04:29:27.327Z,8.51
2022-07-28T04:29:56.688Z,8.51
2022-07-28T04:30:28.829Z,8.51
2022-07-28T04:31:00.851Z,8.51
2022-07-28T04:31:32.007Z,8.51
2022-07-28T04:32:06.068Z,8.51
2022-07-28T04:32:34.565Z,8.51
2022-07-28T04:32:52.608Z,8.51
2022-07-28T04:33:23.865Z,8.51
2022-07-28T04:33:40.944Z,8.51
2022-07-28T04:34:12.305Z,8.51
2022-07-28T04:34:33.450Z,8.62
2022-07-28T04:35:01.582Z,8.62
2022-07-28T04:35:32.819Z,8.62
2022-07-28T04:36:04.846Z,8.62
2022-07-28T04:36:33.386Z,8.62
2022-07-28T04:36:51.820Z,8.62
2022-07-28T04:37:25.447Z,8.62
2022-07-28T04:37:55.874Z,8.67
2022-07-28T04:38:28.716Z,8.67
2022-07-28T04:39:01.944Z,8.67
2022-07-28T04:39:32.725Z,8.77
2022-07-28T04:40:04.053Z,8.59
2022-07-28T04:40:34.792Z,8.59
2022-07-28T04:40:51.832Z,8.59
2022-07-28T04:41:23.848Z,8.59
2022-07-28T04:41:42.742Z,8.59
2022-07-28T04:42:12.859Z,8.59
2022-07-28T04:42:33.401Z,8.59
2022-07-28T04:43:00.025Z,8.59
2022-07-28T04:43:32.539Z,8.59
2022-07-28T04:44:03.899Z,8.59
2022-07-28T04:44:33.393Z,8.59
2022-07-28T04:44:52.041Z,8.71
2022-07-28T04:45:24.018Z,8.71
2022-07-28T04:45:52.973Z,8.71
2022-07-28T04:46:14.991Z,8.71
2022-07-28T04:46:33.533Z,8.71
2022-07-28T04:47:00.558Z,8.71
2022-07-28T04:47:31.916Z,8.71
2022-07-28T04:48:04.639Z,8.71
2022-07-28T04:48:33.614Z,8.71
2022-07-28T04:48:51.997Z,8.82
2022-07-28T04:49:24.782Z,8.82
2022-07-28T04:49:41.457Z,8.82
2022-07-28T04:50:11.994Z,8.82
2022-07-28T04:50:33.313Z,8.82
2022-07-28T04:51:00.089Z,8.82
2022-07-28T04:51:32.495Z,8.82
2022-07-28T04:52:05.896Z,8.82
2022-07-28T04:52:34.475Z,8.82
2022-07-28T04:52:51.945Z,8.82
2022-07-28T04:53:24.976Z,8.82
2022-07-28T04:53:41.416Z,8.82
2022-07-28T04:54:12.786Z,8.82
2022-07-28T04:54:34.392Z,8.82
2022-07-28T04:54:59.896Z,8.82
2022-07-28T04:55:32.793Z,8.82
2022-07-28T04:56:05.051Z,8.93
2022-07-28T04:56:34.434Z,8.93
2022-07-28T04:56:52.825Z,8.93
2022-07-28T04:57:23.908Z,8.93
2022-07-28T04:57:44.408Z,8.93
2022-07-28T04:58:11.976Z,8.93
2022-07-28T04:58:33.339Z,8.97
2022-07-28T04:59:01.512Z,8.97
2022-07-28T04:59:31.943Z,8.97
2022-07-28T05:00:05.103Z,8.97
2022-07-28T05:00:34.466Z,8.97
2022-07-28T05:00:53.093Z,8.91
2022-07-28T05:01:24.097Z,8.91
2022-07-28T05:01:41.308Z,9.03
2022-07-28T05:02:11.919Z,9.03
2022-07-28T05:02:33.455Z,9.03
2022-07-28T05:03:01.619Z,9.03
2022-07-28T05:03:36.183Z,9.03
2022-07-28T05:04:03.968Z,9.14
2022-07-28T05:04:36.438Z,9.14
2022-07-28T05:05:08.153Z,9.14
2022-07-28T05:05:33.419Z,9.24
2022-07-28T05:05:58.259Z,9.24
2022-07-28T05:06:27.931Z,9.24
2022-07-28T05:07:00.625Z,9.29
2022-07-28T05:07:31.806Z,9.11
2022-07-28T05:08:03.901Z,9.11
2022-07-28T05:08:35.232Z,9.11
2022-07-28T05:08:51.763Z,9.11
2022-07-28T05:09:25.420Z,9.22
2022-07-28T05:09:56.849Z,9.22
2022-07-28T05:10:28.138Z,9.33
2022-07-28T05:11:01.513Z,9.33
2022-07-28T05:11:32.727Z,9.26
2022-07-28T05:12:05.641Z,9.26
2022-07-28T05:12:33.444Z,9.26
2022-07-28T05:12:51.942Z,9.36
2022-07-28T05:13:23.814Z,9.36
2022-07-28T05:13:40.925Z,9.36
2022-07-28T05:14:13.954Z,9.41
2022-07-28T05:14:33.716Z,9.41
2022-07-28T05:14:59.926Z,9.41
2022-07-28T05:15:31.926Z,9.41
2022-07-28T05:16:03.915Z,9.52
2022-07-28T05:16:33.465Z,9.52
2022-07-28T05:16:52.069Z,9.52
2022-07-28T05:17:25.552Z,9.52
2022-07-28T05:17:55.837Z,9.52
2022-07-28T05:18:29.717Z,9.52
2022-07-28T05:19:00.023Z,9.52
2022-07-28T05:19:31.811Z,9.64
2022-07-28T05:20:04.810Z,9.64
2022-07-28T05:20:33.446Z,9.64
2022-07-28T05:20:53.252Z,9.45
2022-07-28T05:21:24.719Z,9.45
2022-07-28T05:21:41.328Z,9.45
2022-07-28T05:22:11.899Z,9.74
2022-07-28T05:22:34.217Z,9.74
2022-07-28T05:23:00.571Z,9.74
2022-07-28T05:23:31.776Z,9.74
2022-07-28T05:24:03.837Z,9.74
2022-07-28T05:24:33.393Z,9.74
2022-07-28T05:24:52.013Z,9.56
2022-07-28T05:25:26.576Z,9.56
2022-07-28T05:25:55.798Z,9.56
2022-07-28T05:26:31.629Z,9.56
2022-07-28T05:26:59.917Z,9.56
2022-07-28T05:27:32.565Z,9.56
2022-07-28T05:28:03.815Z,9.56
2022-07-28T05:28:34.359Z,9.56
2022-07-28T05:28:52.028Z,9.56
2022-07-28T05:29:24.948Z,9.56
2022-07-28T05:29:46.997Z,9.56
2022-07-28T05:30:13.022Z,9.56
2022-07-28T05:30:33.415Z,9.56
2022-07-28T05:30:59.960Z,9.56
2022-07-28T05:31:34.044Z,9.56
2022-07-28T05:32:16.301Z,9.56
2022-07-28T05:32:33.402Z,9.56
2022-07-28T05:32:53.754Z,9.66
2022-07-28T05:33:23.913Z,9.66
2022-07-28T05:33:41.032Z,9.66
2022-07-28T05:34:15.009Z,9.47
2022-07-28T05:34:34.699Z,9.47
2022-07-28T05:34:59.823Z,9.47
2022-07-28T05:35:32.046Z,9.47
2022-07-28T05:36:04.838Z,9.52
2022-07-28T05:36:33.404Z,9.52
2022-07-28T05:36:52.610Z,9.52
2022-07-28T05:37:23.860Z,9.52
2022-07-28T05:37:40.939Z,9.52
2022-07-28T05:38:11.958Z,9.62
2022-07-28T05:38:34.310Z,9.62
2022-07-28T05:39:00.615Z,9.62
2022-07-28T05:39:31.787Z,9.62
2022-07-28T05:40:04.100Z,9.74
2022-07-28T05:40:33.321Z,9.74
2022-07-28T05:40:51.981Z,9.55
2022-07-28T05:41:24.753Z,9.85
2022-07-28T05:41:41.566Z,9.85
2022-07-28T05:42:11.942Z,9.85
2022-07-28T05:42:37.590Z,9.66
2022-07-28T05:43:15.820Z,9.66
2022-07-28T05:43:33.489Z,9.77
2022-07-28T05:44:04.617Z,9.77
2022-07-28T05:44:37.919Z,9.77
2022-07-28T05:44:52.605Z,9.82
2022-07-28T05:45:24.057Z,9.82
2022-07-28T05:45:41.002Z,9.82
2022-07-28T05:46:13.707Z,9.82
2022-07-28T05:46:34.211Z,9.82
2022-07-28T05:46:59.887Z,9.92
2022-07-28T05:47:34.702Z,10.04
2022-07-28T05:48:04.744Z,10.04
2022-07-28T05:48:33.502Z,10.04
2022-07-28T05:48:52.168Z,10.04
2022-07-28T05:49:24.029Z,10.04
2022-07-28T05:49:40.917Z,10.04
2022-07-28T05:50:13.061Z,9.95
2022-07-28T05:50:33.575Z,9.95
2022-07-28T05:51:01.095Z,10.05
2022-07-28T05:51:34.363Z,10.05
2022-07-28T05:52:04.805Z,9.85
2022-07-28T05:52:34.117Z,9.90
2022-07-28T05:53:08.015Z,9.90
2022-07-28T05:53:33.577Z,10.01
2022-07-28T05:53:55.972Z,10.12
2022-07-28T05:54:28.711Z,10.12
2022-07-28T05:54:59.875Z,10.02
2022-07-28T05:55:36.117Z,10.02
2022-07-28T05:56:04.000Z,10.13
2022-07-28T05:56:34.571Z,10.13
2022-07-28T05:56:51.873Z,9.97
2022-07-28T05:57:23.992Z,10.08
2022-07-28T05:57:41.263Z,10.20
2022-07-28T05:58:13.653Z,10.30
2022-07-28T05:58:34.248Z,10.30
2022-07-28T05:58:59.805Z,10.10
2022-07-28T05:59:32.993Z,10.25
2022-07-28T06:00:04.088Z,10.36
2022-07-28T06:00:35.583Z,10.36
2022-07-28T06:01:07.941Z,10.26
2022-07-28T06:01:33.652Z,10.48
2022-07-28T06:01:56.045Z,10.37
2022-07-28T06:02:27.942Z,10.37
2022-07-28T06:03:01.675Z,10.52
2022-07-28T06:03:34.248Z,10.41
2022-07-28T06:04:26.504Z,10.63
2022-07-28T06:04:33.790Z,10.63
2022-07-28T06:04:52.947Z,10.63
2022-07-28T06:05:23.953Z,10.63
2022-07-28T06:05:59.446Z,10.63
2022-07-28T06:06:27.888Z,10.41
2022-07-28T06:06:59.808Z,10.63
2022-07-28T06:07:43.193Z,10.63
2022-07-28T06:08:03.875Z,10.47